Time;durP1;ratioP1;P1;durP2;ratioP2;P2;SDS_P1;SDS_P2;PMS_P1;PMS_P2;Temp;Humidity;BMP_temperature;BMP_pressure;BME280_temperature;BME280_humidity;BME280_pressure;Samples;Min_cycle;Max_cycle;Signal;HPM_P1;HPM_P2
2023/11/02 00:06:32;;;;;;;49.30;25.60;;;;;;;6.55;88.04;97676.37;435288;1250;107284;-40
2023/11/02 00:16:36;;;;;;;42.90;22.70;;;;;;;6.51;88.35;97674.54;435455;1253;97903;-41
2023/11/02 00:26:39;;;;;;;33.60;16.60;;;;;;;6.54;88.15;97672.23;435284;1253;98140;-40
2023/11/02 00:36:43;;;;;;;32.30;17.90;;;;;;;6.56;88.04;97669.73;435333;1250;109352;-40
2023/11/02 00:46:47;;;;;;;29.50;15.10;;;;;;;6.57;88.00;97649.66;435105;1254;273662;-40
2023/11/02 00:56:51;;;;;;;26.70;13.30;;;;;;;6.59;88.16;97622.77;435276;1252;107243;-41
2023/11/02 01:06:55;;;;;;;24.30;13.40;;;;;;;6.61;88.15;97615.30;435337;1253;99227;-40
2023/11/02 01:16:59;;;;;;;28.60;14.00;;;;;;;6.56;88.27;97605.84;435342;1250;111682;-41
2023/11/02 01:27:03;;;;;;;21.90;10.80;;;;;;;6.62;88.14;97601.42;435216;1265;108388;-41
2023/11/02 01:37:07;;;;;;;16.90;8.40;;;;;;;6.69;88.06;97585.02;435358;1254;99849;-44
2023/11/02 01:47:12;;;;;;;13.40;8.20;;;;;;;6.75;88.13;97568.80;435349;1253;108104;-41
2023/11/02 01:57:16;;;;;;;15.40;8.60;;;;;;;6.83;88.15;97557.34;435377;1250;99212;-42
2023/11/02 02:07:24;;;;;;;16.00;7.20;;;;;;;6.87;88.01;97550.13;435388;1253;112296;-41
2023/11/02 02:17:32;;;;;;;23.90;9.20;;;;;;;6.74;88.03;97539.52;436062;1247;107742;-41
2023/11/02 02:28:08;;;;;;;12.10;7.60;;;;;;;6.71;87.65;97533.25;435378;1254;99241;-41
2023/11/02 02:58:23;;;;;;;;;;;;;;;6.65;87.78;97510.96;435402;1255;110589;-40
2023/11/02 03:08:31;;;;;;;11.40;6.00;;;;;;;6.54;88.01;97499.73;435259;1254;107537;-40
2023/11/02 03:18:39;;;;;;;12.60;5.10;;;;;;;6.59;87.98;97489.98;435157;1254;97978;-41
2023/11/02 03:28:44;;;;;;;9.90;4.90;;;;;;;6.69;87.92;97485.35;435231;1250;106813;-42
2023/11/02 03:38:55;;;;;;;13.20;6.40;;;;;;;6.80;88.05;97477.63;435340;1250;99221;-40
2023/11/02 03:59:10;;;;;;;13.50;5.70;;;;;;;6.83;88.14;97457.55;435264;1254;107345;-41
2023/11/02 04:09:15;;;;;;;12.40;5.80;;;;;;;6.78;87.84;97444.70;435299;1254;99627;-41
2023/11/02 04:19:19;;;;;;;10.40;5.40;;;;;;;6.80;87.85;97426.08;435261;1256;108410;-42
2023/11/02 04:29:21;;;;;;;11.20;4.90;;;;;;;6.84;87.93;97422.89;435306;1255;98465;-42
2023/11/02 04:39:25;;;;;;;7.20;4.40;;;;;;;6.89;87.89;97412.23;435192;1255;113538;-41
2023/11/02 04:59:41;;;;;;;5.80;3.20;;;;;;;6.98;87.96;97377.27;435244;1254;99208;-41
2023/11/02 05:09:45;;;;;;;5.90;3.90;;;;;;;7.18;88.02;97357.63;435155;1256;107156;-41
2023/11/02 05:19:47;;;;;;;5.50;4.20;;;;;;;7.32;87.90;97340.55;435240;1255;99316;-40
2023/11/02 05:29:51;;;;;;;8.20;4.20;;;;;;;7.43;87.94;97323.88;435544;1254;112251;-39
2023/11/02 05:39:57;;;;;;;10.50;4.70;;;;;;;7.45;87.84;97319.02;435289;1256;107353;-41
2023/11/02 05:50:03;;;;;;;9.60;4.80;;;;;;;7.56;87.67;97318.75;435296;1255;98075;-40
2023/11/02 06:00:08;;;;;;;8.60;4.40;;;;;;;7.73;87.64;97311.61;435271;1250;107357;-41
2023/11/02 06:10:13;;;;;;;7.50;4.40;;;;;;;7.87;87.44;97306.86;435389;1256;99209;-39
2023/11/02 06:20:17;;;;;;;11.40;4.60;;;;;;;8.02;87.61;97302.88;435427;1254;110370;-40
2023/11/02 06:30:19;;;;;;;8.20;3.80;;;;;;;8.17;87.55;97299.52;435294;1255;107484;-41
2023/11/02 06:40:23;;;;;;;7.10;3.60;;;;;;;8.42;87.29;97300.19;435230;1256;99231;-40
2023/11/02 06:50:27;;;;;;;10.50;3.40;;;;;;;8.72;87.08;97276.27;435475;1256;107650;-42
2023/11/02 07:00:31;;;;;;;6.20;3.50;;;;;;;8.93;86.74;97270.34;435327;1250;99233;-39
2023/11/02 07:10:34;;;;;;;9.70;3.40;;;;;;;9.07;86.28;97250.52;435346;1254;112147;-41
2023/11/02 07:20:37;;;;;;;6.00;3.20;;;;;;;9.50;86.18;97244.17;435168;1256;107298;-39
2023/11/02 07:30:41;;;;;;;6.00;3.60;;;;;;;10.14;85.37;97230.23;435335;1250;99648;-41
2023/11/02 07:40:45;;;;;;;8.90;3.30;;;;;;;11.38;83.57;97206.35;435328;1256;107944;-40
2023/11/02 08:10:56;;;;;;;7.70;3.10;;;;;;;14.07;76.70;97164.45;435223;1256;108616;-41
2023/11/02 08:41:06;;;;;;;4.60;3.00;;;;;;;13.26;72.42;97121.39;435307;1250;99254;-42
2023/11/02 08:51:11;;;;;;;6.90;2.30;;;;;;;13.76;71.58;97110.09;435396;1256;110714;-41
2023/11/02 09:11:26;;;;;;;4.30;2.30;;;;;;;14.17;69.19;97099.34;435471;1255;99456;-41
2023/11/02 09:21:37;;;;;;;3.80;1.90;;;;;;;14.46;68.54;97094.08;435069;1250;107518;-41
2023/11/02 09:31:43;;;;;;;4.20;1.80;;;;;;;14.61;68.30;97087.11;435305;1254;99223;-41
2023/11/02 09:42:04;;;;;;;3.70;2.20;;;;;;;14.74;66.83;97072.36;435379;1250;111902;-40
2023/11/02 09:52:09;;;;;;;5.70;3.20;;;;;;;14.90;66.76;97062.11;435210;1250;106377;-41
2023/11/02 10:02:13;;;;;;;6.30;2.80;;;;;;;15.18;65.79;97039.56;435113;1256;99269;-42
2023/11/02 10:12:18;;;;;;;8.50;2.20;;;;;;;15.19;64.39;97012.41;435189;1257;108092;-40
2023/11/02 10:22:22;;;;;;;4.40;2.40;;;;;;;15.33;64.56;96995.36;435175;1250;99215;-41
2023/11/02 10:32:26;;;;;;;6.30;2.60;;;;;;;15.45;64.07;96969.80;435329;1254;111926;-40
2023/11/02 10:42:30;;;;;;;4.40;1.90;;;;;;;15.69;63.10;96959.31;435219;1250;107311;-41
2023/11/02 10:52:41;;;;;;;4.30;1.30;;;;;;;15.79;61.02;96948.98;435467;1255;99102;-40
2023/11/02 11:12:50;;;;;;;5.60;1.70;;;;;;;16.09;60.56;96924.99;435184;1256;99231;-42
2023/11/02 11:22:54;;;;;;;3.40;1.70;;;;;;;16.18;60.04;96922.84;435371;1264;111234;-41
2023/11/02 11:33:00;;;;;;;2.20;1.80;;;;;;;16.15;60.12;96903.69;435439;1251;107195;-41
2023/11/02 11:43:07;;;;;;;4.90;1.80;;;;;;;16.15;60.14;96887.16;435480;1257;99228;-41
2023/11/02 11:53:13;;;;;;;3.40;1.40;;;;;;;16.22;58.75;96868.27;435381;1263;107956;-40
2023/11/02 12:33:58;;;;;;;5.00;1.50;;;;;;;16.35;57.37;96802.70;435221;1256;98000;-41
2023/11/02 12:54:09;;;;;;;5.90;1.30;;;;;;;16.22;57.89;96782.14;435214;1254;98578;-40
2023/11/02 13:14:17;;;;;;;4.90;1.30;;;;;;;16.66;55.12;96775.44;435147;1254;107618;-41
2023/11/02 13:24:20;;;;;;;5.60;1.70;;;;;;;16.45;54.60;96777.00;435291;1251;99378;-41
2023/11/02 13:44:27;;;;;;;4.90;1.70;;;;;;;16.12;55.42;96766.98;435301;1254;99762;-41
2023/11/02 14:04:36;;;;;;;3.20;2.00;;;;;;;15.81;56.94;96744.11;435340;1254;108392;-41
2023/11/02 14:14:39;;;;;;;4.70;2.10;;;;;;;15.65;56.77;96741.84;435314;1254;97972;-41
2023/11/02 14:24:44;;;;;;;6.60;3.30;;;;;;;15.54;57.11;96732.58;435282;1251;108193;-42
2023/11/02 14:34:48;;;;;;;8.10;2.40;;;;;;;15.43;57.73;96714.48;435076;1254;98019;-42
2023/11/02 14:44:51;;;;;;;4.10;2.50;;;;;;;15.31;57.98;96694.23;435331;1254;112638;-40
2023/11/02 15:05:10;;;;;;;12.80;5.30;;;;;;;15.09;58.57;96679.73;435343;1251;98694;-43
2023/11/02 15:15:37;;;;;;;8.40;3.30;;;;;;;15.03;58.12;96652.10;435297;1250;106973;-43
2023/11/02 15:25:40;;;;;;;9.90;5.20;;;;;;;14.97;58.19;96623.90;435161;1251;99221;-41
2023/11/02 15:45:46;;;;;;;10.10;4.70;;;;;;;14.75;58.22;96599.95;435282;1251;109115;-41
2023/11/02 16:05:53;;;;;;;10.00;5.60;;;;;;;14.67;58.74;96608.35;435338;1254;107688;-43
2023/11/02 16:26:00;;;;;;;13.40;8.20;;;;;;;14.46;59.57;96598.77;435302;1250;111092;-43
2023/11/02 16:46:10;;;;;;;18.80;8.10;;;;;;;14.25;60.07;96583.78;435288;1254;98825;-41
2023/11/02 16:56:14;;;;;;;18.70;9.40;;;;;;;14.14;60.31;96564.25;435265;1250;108138;-40
2023/11/02 17:16:20;;;;;;;16.10;7.60;;;;;;;13.86;61.13;96553.70;435191;1254;112083;-41
2023/11/02 17:36:28;;;;;;;19.80;8.30;;;;;;;13.64;62.09;96532.63;435390;1250;99208;-40
2023/11/02 17:46:33;;;;;;;17.50;8.20;;;;;;;13.56;62.09;96520.60;435222;1254;108381;-41
2023/11/02 17:56:43;;;;;;;15.00;8.00;;;;;;;13.52;61.96;96502.35;435289;1250;98061;-42
2023/11/02 18:06:47;;;;;;;14.40;8.10;;;;;;;13.44;61.98;96498.44;435236;1250;112219;-41
2023/11/02 18:16:50;;;;;;;13.80;7.10;;;;;;;13.47;61.94;96484.55;435362;1250;108567;-41
2023/11/02 18:26:53;;;;;;;11.20;6.40;;;;;;;13.55;61.92;96467.95;435345;1250;99339;-41
2023/11/02 18:36:57;;;;;;;11.20;6.60;;;;;;;13.65;61.66;96455.11;435281;1254;107342;-41
2023/11/02 18:47:06;;;;;;;18.90;7.10;;;;;;;13.71;61.44;96442.64;435189;1249;98332;-41
2023/11/02 18:57:10;;;;;;;13.10;6.30;;;;;;;13.80;61.30;96434.10;435177;1250;111853;-40
2023/11/02 19:07:14;;;;;;;14.60;6.20;;;;;;;13.80;61.03;96434.20;435359;1254;107918;-41
2023/11/02 19:37:26;;;;;;;11.50;5.90;;;;;;;13.78;60.75;96443.40;435301;1254;97968;-41
2023/11/02 19:47:29;;;;;;;10.60;5.50;;;;;;;13.70;61.02;96441.28;435472;1250;112755;-41
2023/11/02 19:57:33;;;;;;;12.80;5.70;;;;;;;13.66;61.05;96438.77;435165;1250;107875;-40
2023/11/02 20:07:37;;;;;;;12.50;6.90;;;;;;;13.62;61.28;96429.55;435588;1250;99485;-41
2023/11/02 20:17:41;;;;;;;17.30;7.20;;;;;;;13.57;61.55;96418.98;435271;1254;107503;-40
2023/11/02 20:27:44;;;;;;;13.60;6.20;;;;;;;13.55;61.55;96410.01;435260;1250;99217;-41
2023/11/02 20:37:50;;;;;;;9.00;5.30;;;;;;;13.58;61.56;96403.03;435521;1254;111581;-40
2023/11/02 20:57:57;;;;;;;11.70;6.40;;;;;;;13.59;61.62;96388.20;435222;1251;98335;-40
2023/11/02 21:08:01;;;;;;;9.20;5.40;;;;;;;13.56;61.78;96382.90;435366;1250;108543;-40
2023/11/02 21:18:04;;;;;;;29.80;5.50;;;;;;;13.52;61.99;96383.10;435317;1250;99640;-41
2023/11/02 21:28:07;;;;;;;9.60;5.50;;;;;;;13.41;62.22;96379.95;435286;1250;110696;-41
2023/11/02 21:38:11;;;;;;;12.10;5.90;;;;;;;13.36;62.43;96366.71;435218;1255;108412;-42
2023/11/02 21:48:15;;;;;;;7.90;4.80;;;;;;;13.37;62.66;96359.66;435363;1250;98243;-40
2023/11/02 21:58:19;;;;;;;8.40;4.40;;;;;;;13.33;62.94;96369.13;435411;1254;108254;-41
2023/11/02 22:08:23;;;;;;;6.50;4.50;;;;;;;13.18;63.54;96359.88;435341;1250;99340;-40
2023/11/02 22:18:27;;;;;;;10.30;5.00;;;;;;;13.03;64.33;96363.95;435173;1254;111067;-41
2023/11/02 22:28:32;;;;;;;5.80;4.00;;;;;;;12.86;65.25;96362.37;435116;1254;108228;-41
2023/11/02 22:38:35;;;;;;;9.00;4.60;;;;;;;12.73;66.02;96364.23;435247;1254;98367;-40
2023/11/02 22:58:43;;;;;;;12.20;5.30;;;;;;;12.54;67.14;96333.52;435242;1250;99615;-41
2023/11/02 23:08:46;;;;;;;4.50;3.40;;;;;;;12.63;67.35;96312.01;435239;1254;111089;-41
2023/11/02 23:18:50;;;;;;;10.40;4.60;;;;;;;12.74;67.53;96285.88;435436;1254;108037;-40
2023/11/02 23:49:12;;;;;;;5.70;4.10;;;;;;;12.85;67.99;96267.39;435302;1254;99231;-40
2023/11/02 23:59:16;;;;;;;6.30;4.20;;;;;;;12.85;68.28;96249.27;435256;1253;111782;-41
